createdAt,value
2023-05-19T00:01:23.287Z,17.77
2023-05-19T00:03:58.076Z,17.72
2023-05-19T00:06:27.421Z,17.64
2023-05-19T00:09:03.696Z,17.73
2023-05-19T00:11:31.316Z,17.68
2023-05-19T00:14:00.260Z,17.73
2023-05-19T00:16:29.345Z,17.68
2023-05-19T00:19:01.275Z,17.68
2023-05-19T00:21:29.858Z,17.58
2023-05-19T00:23:57.747Z,17.61
2023-05-19T00:26:27.117Z,17.56
2023-05-19T00:29:05.483Z,17.48
2023-05-19T00:31:34.379Z,17.48
2023-05-19T00:34:02.217Z,17.35
2023-05-19T00:36:30.014Z,17.36
2023-05-19T00:38:57.309Z,17.40
2023-05-19T00:41:25.336Z,17.34
2023-05-19T00:43:52.779Z,17.26
2023-05-19T00:46:20.252Z,17.24
2023-05-19T00:48:48.629Z,17.12
2023-05-19T00:51:17.311Z,17.12
2023-05-19T00:53:49.501Z,17.13
2023-05-19T00:56:18.678Z,17.11
2023-05-19T00:58:46.252Z,17.20
2023-05-19T01:01:14.766Z,17.20
2023-05-19T01:03:43.556Z,17.04
2023-05-19T01:06:12.377Z,17.13
2023-05-19T01:08:40.989Z,17.14
2023-05-19T01:11:08.736Z,17.08
2023-05-19T01:13:37.057Z,17.10
2023-05-19T01:16:23.791Z,17.13
2023-05-19T01:19:01.960Z,17.10
2023-05-19T01:21:55.782Z,17.10
2023-05-19T01:24:40.707Z,17.01
2023-05-19T01:27:51.148Z,17.05
2023-05-19T01:30:36.593Z,16.96
2023-05-19T01:33:11.247Z,16.90
2023-05-19T01:35:41.864Z,16.88
2023-05-19T01:38:11.761Z,17.01
2023-05-19T01:40:42.230Z,17.01
2023-05-19T01:43:12.728Z,17.03
2023-05-19T01:45:40.978Z,17.04
2023-05-19T01:48:10.783Z,17.02
2023-05-19T01:50:41.053Z,16.90
2023-05-19T01:53:08.768Z,16.92
2023-05-19T01:55:42.841Z,16.91
2023-05-19T01:58:19.612Z,16.86
2023-05-19T02:00:54.248Z,16.86
2023-05-19T02:03:30.923Z,16.91
2023-05-19T02:06:01.297Z,16.92
2023-05-19T02:08:40.810Z,16.84
2023-05-19T02:11:16.848Z,16.82
2023-05-19T02:13:48.235Z,16.73
2023-05-19T02:16:17.779Z,16.70
2023-05-19T02:18:46.446Z,16.84
2023-05-19T02:21:14.105Z,16.91
2023-05-19T02:23:42.282Z,16.93
2023-05-19T02:26:09.516Z,16.98
2023-05-19T02:28:36.910Z,16.97
2023-05-19T02:31:09.804Z,17.01
2023-05-19T02:33:37.759Z,16.96
2023-05-19T02:36:07.431Z,16.96
2023-05-19T02:38:34.839Z,17.11
2023-05-19T02:41:02.174Z,17.02
2023-05-19T02:43:30.722Z,17.03
2023-05-19T02:45:58.185Z,17.08
2023-05-19T02:48:28.040Z,17.10
2023-05-19T02:50:55.327Z,17.21
2023-05-19T02:53:22.640Z,17.14
2023-05-19T02:55:49.959Z,17.10
2023-05-19T02:58:17.161Z,17.13
2023-05-19T03:00:45.644Z,17.19
2023-05-19T03:03:14.442Z,17.27
2023-05-19T03:05:43.570Z,17.27
2023-05-19T03:08:11.015Z,17.32
2023-05-19T03:10:38.592Z,17.25
2023-05-19T03:13:06.420Z,17.35
2023-05-19T03:15:34.733Z,17.41
2023-05-19T03:18:01.990Z,17.42
2023-05-19T03:20:31.520Z,17.54
2023-05-19T03:22:59.025Z,17.54
2023-05-19T03:25:26.644Z,17.57
2023-05-19T03:27:54.110Z,17.65
2023-05-19T03:30:21.386Z,17.63
2023-05-19T03:33:12.550Z,17.73
2023-05-19T03:35:41.046Z,17.64
2023-05-19T03:38:08.780Z,17.72
2023-05-19T03:40:37.535Z,17.69
2023-05-19T03:43:09.440Z,17.74
2023-05-19T03:45:43.575Z,17.77
2023-05-19T03:48:31.139Z,17.93
2023-05-19T03:51:17.125Z,18.01
2023-05-19T03:53:45.858Z,17.87
2023-05-19T03:56:15.168Z,17.98
2023-05-19T03:58:44.535Z,18.29
2023-05-19T04:01:12.347Z,18.34
2023-05-19T04:03:39.823Z,18.42
2023-05-19T04:06:09.366Z,18.51
2023-05-19T04:08:36.658Z,18.43
2023-05-19T04:11:04.275Z,18.52
2023-05-19T04:13:34.991Z,18.62
2023-05-19T04:16:02.819Z,18.73
2023-05-19T04:18:30.397Z,18.72
2023-05-19T04:20:57.754Z,18.74
2023-05-19T04:23:26.101Z,18.92
2023-05-19T04:25:54.506Z,18.85
2023-05-19T04:28:21.950Z,18.81
2023-05-19T04:30:49.679Z,19.00
2023-05-19T04:33:17.965Z,18.92
2023-05-19T04:35:46.625Z,19.02
2023-05-19T04:38:13.969Z,19.13
2023-05-19T04:40:42.759Z,19.20
2023-05-19T04:43:11.755Z,19.13
2023-05-19T04:45:42.885Z,19.18
2023-05-19T04:48:12.606Z,19.36
2023-05-19T04:50:42.511Z,19.39
2023-05-19T04:53:11.517Z,19.45
2023-05-19T04:55:39.545Z,19.62
2023-05-19T04:58:07.877Z,19.65
2023-05-19T05:00:35.999Z,19.83
2023-05-19T05:03:09.990Z,19.88
2023-05-19T05:05:37.569Z,19.74
2023-05-19T05:08:23.392Z,20.02
2023-05-19T05:10:55.393Z,20.10
2023-05-19T05:13:24.314Z,20.23
2023-05-19T05:15:56.322Z,20.32
2023-05-19T05:18:23.837Z,20.38
2023-05-19T05:20:51.799Z,20.40
2023-05-19T05:23:19.934Z,20.47
2023-05-19T05:25:49.344Z,20.62
2023-05-19T05:28:17.669Z,20.77
2023-05-19T05:30:46.514Z,20.86
2023-05-19T05:33:20.018Z,20.76
2023-05-19T05:35:47.437Z,20.86
2023-05-19T05:38:15.553Z,20.97
2023-05-19T05:40:42.764Z,20.94
2023-05-19T05:43:11.123Z,21.02
2023-05-19T05:45:47.816Z,21.12
2023-05-19T05:48:16.226Z,21.17
2023-05-19T05:50:45.045Z,21.32
2023-05-19T05:53:21.609Z,21.41
2023-05-19T05:55:53.919Z,21.45
2023-05-19T05:58:24.820Z,21.46
2023-05-19T06:00:55.437Z,21.51
2023-05-19T06:03:24.712Z,21.50
2023-05-19T06:05:53.896Z,21.49
2023-05-19T06:08:21.159Z,21.49
2023-05-19T06:10:51.273Z,21.61
2023-05-19T06:13:22.781Z,21.65
2023-05-19T06:15:51.324Z,21.68
2023-05-19T06:18:26.340Z,21.79
2023-05-19T06:20:53.848Z,21.87
2023-05-19T06:23:22.023Z,21.82
2023-05-19T06:25:49.833Z,21.96
2023-05-19T06:28:19.517Z,22.01
2023-05-19T06:30:47.226Z,22.00
2023-05-19T06:33:21.977Z,22.06
2023-05-19T06:35:49.549Z,22.09
2023-05-19T06:38:17.779Z,22.15
2023-05-19T06:40:45.998Z,22.15
2023-05-19T06:43:15.227Z,22.14
2023-05-19T06:45:56.983Z,22.23
2023-05-19T06:48:26.197Z,22.11
2023-05-19T06:50:53.594Z,22.20
2023-05-19T06:53:21.736Z,22.13
2023-05-19T06:55:59.424Z,22.19
2023-05-19T06:58:30.620Z,22.21
2023-05-19T07:01:00.664Z,22.15
2023-05-19T07:03:34.309Z,22.20
2023-05-19T07:06:02.468Z,22.21
2023-05-19T07:08:29.974Z,22.21
2023-05-19T07:11:00.598Z,22.15
2023-05-19T07:13:29.754Z,22.33
2023-05-19T07:15:58.592Z,22.17
2023-05-19T07:18:32.603Z,22.35
2023-05-19T07:21:01.333Z,22.37
2023-05-19T07:23:28.825Z,22.37
2023-05-19T07:26:00.784Z,22.42
2023-05-19T07:28:28.157Z,22.56
2023-05-19T07:30:56.489Z,22.56
2023-05-19T07:33:24.272Z,22.52
2023-05-19T07:35:51.699Z,22.57
2023-05-19T07:38:19.921Z,22.57
2023-05-19T07:40:47.436Z,22.65
2023-05-19T07:43:16.393Z,22.80
2023-05-19T07:45:43.737Z,22.72
2023-05-19T07:48:11.156Z,22.77
2023-05-19T07:50:38.452Z,22.77
2023-05-19T07:53:08.615Z,22.77
2023-05-19T07:55:36.124Z,22.84
2023-05-19T07:58:03.416Z,23.00
2023-05-19T08:00:31.177Z,23.01
2023-05-19T08:02:58.908Z,22.97
2023-05-19T08:05:26.395Z,23.09
2023-05-19T08:07:53.551Z,23.15
2023-05-19T08:10:20.875Z,23.00
2023-05-19T08:12:48.328Z,23.03
2023-05-19T08:15:16.765Z,23.05
2023-05-19T08:17:44.354Z,23.20
2023-05-19T08:20:14.916Z,23.30
2023-05-19T08:22:50.517Z,23.21
2023-05-19T08:25:20.019Z,23.33
2023-05-19T08:27:47.323Z,23.43
2023-05-19T08:30:14.891Z,23.47
2023-05-19T08:32:42.668Z,23.41
2023-05-19T08:35:10.256Z,23.53
2023-05-19T08:37:38.977Z,23.53
2023-05-19T08:40:12.145Z,23.64
2023-05-19T08:42:40.278Z,23.63
2023-05-19T08:45:08.107Z,23.66
2023-05-19T08:47:36.216Z,23.56
2023-05-19T08:50:10.066Z,23.65
2023-05-19T08:52:53.059Z,23.81
2023-05-19T08:55:44.321Z,23.87
2023-05-19T08:58:12.937Z,23.74
2023-05-19T09:00:40.594Z,23.93
2023-05-19T09:03:18.232Z,24.03
2023-05-19T09:05:46.969Z,24.12
2023-05-19T09:08:14.418Z,24.20
2023-05-19T09:10:41.981Z,24.19
2023-05-19T09:13:10.098Z,24.22
2023-05-19T09:15:39.539Z,24.31
2023-05-19T09:18:12.059Z,24.36
2023-05-19T09:20:44.846Z,24.49
2023-05-19T09:23:15.146Z,24.63
2023-05-19T09:25:53.126Z,24.67
2023-05-19T09:28:25.711Z,24.70
2023-05-19T09:31:06.809Z,24.53
2023-05-19T09:33:39.558Z,24.42
2023-05-19T09:36:08.654Z,24.46
2023-05-19T09:38:38.414Z,24.57
2023-05-19T09:41:07.311Z,24.61
2023-05-19T09:43:35.587Z,24.69
2023-05-19T09:46:07.888Z,24.83
2023-05-19T09:48:36.813Z,24.78
2023-05-19T09:51:06.610Z,24.94
2023-05-19T09:53:35.013Z,25.01
2023-05-19T09:56:03.821Z,25.05
2023-05-19T09:58:35.625Z,24.97
2023-05-19T10:01:08.366Z,25.10
2023-05-19T10:03:38.975Z,25.00
2023-05-19T10:06:07.616Z,24.99
2023-05-19T10:08:36.086Z,24.87
2023-05-19T10:11:03.869Z,24.89
2023-05-19T10:13:32.203Z,24.83
2023-05-19T10:16:01.078Z,24.71
2023-05-19T10:18:30.908Z,24.62
2023-05-19T10:21:01.357Z,24.58
2023-05-19T10:23:31.063Z,24.53
2023-05-19T10:26:02.040Z,24.41
2023-05-19T10:28:37.393Z,24.53
2023-05-19T10:31:10.211Z,24.40
2023-05-19T10:33:57.154Z,24.34
2023-05-19T10:36:46.147Z,24.32
2023-05-19T10:39:19.201Z,24.40
2023-05-19T10:42:12.010Z,24.63
2023-05-19T10:44:42.346Z,24.69
2023-05-19T10:47:12.375Z,24.66
2023-05-19T10:49:40.953Z,24.83
2023-05-19T10:52:32.171Z,24.87
2023-05-19T10:55:01.574Z,24.96
2023-05-19T10:57:34.304Z,25.00
2023-05-19T11:00:32.146Z,25.03
2023-05-19T11:05:52.475Z,24.77
2023-05-19T11:08:33.849Z,24.82
2023-05-19T11:11:17.903Z,24.71
2023-05-19T11:13:50.787Z,24.72
2023-05-19T11:16:32.644Z,24.75
2023-05-19T11:19:00.777Z,24.66
2023-05-19T11:21:57.833Z,24.59
2023-05-19T11:24:50.147Z,24.68
2023-05-19T11:27:21.976Z,24.71
2023-05-19T11:29:49.955Z,24.70
2023-05-19T11:32:18.020Z,24.79
2023-05-19T11:34:46.830Z,24.58
2023-05-19T11:37:14.324Z,24.43
2023-05-19T11:39:41.590Z,24.43
2023-05-19T11:42:11.903Z,24.48
2023-05-19T11:44:41.336Z,24.52
2023-05-19T11:47:09.509Z,24.66
2023-05-19T11:49:37.011Z,24.71
2023-05-19T11:52:05.925Z,24.71
2023-05-19T11:54:58.686Z,24.59
2023-05-19T11:57:25.994Z,24.56
2023-05-19T11:59:56.483Z,24.64
2023-05-19T12:02:26.351Z,24.57
2023-05-19T12:04:54.917Z,24.72
2023-05-19T12:07:26.255Z,24.75
2023-05-19T12:09:55.586Z,24.68
2023-05-19T12:12:23.571Z,24.86
2023-05-19T12:14:52.642Z,24.97
2023-05-19T12:17:21.370Z,24.90
2023-05-19T12:19:49.831Z,24.89
2023-05-19T12:22:18.284Z,24.96
2023-05-19T12:24:47.356Z,24.89
2023-05-19T12:27:26.376Z,25.07
2023-05-19T12:29:57.360Z,25.09
2023-05-19T12:32:25.981Z,24.90
2023-05-19T12:34:54.233Z,24.97
2023-05-19T12:37:21.605Z,24.83
2023-05-19T12:39:50.577Z,24.97
2023-05-19T12:42:17.977Z,24.83
2023-05-19T12:44:48.275Z,24.81
2023-05-19T12:47:17.369Z,24.70
2023-05-19T12:50:13.997Z,24.64
2023-05-19T12:52:49.800Z,24.63
2023-05-19T12:55:18.224Z,24.70
2023-05-19T12:57:50.661Z,24.70
2023-05-19T13:00:21.218Z,24.74
2023-05-19T13:03:02.769Z,24.65
2023-05-19T13:05:32.068Z,24.74
2023-05-19T13:08:07.908Z,24.79
2023-05-19T13:10:37.525Z,24.71
2023-05-19T13:13:06.905Z,24.60
2023-05-19T13:15:38.291Z,24.56
2023-05-19T13:18:10.326Z,24.70
2023-05-19T13:20:40.844Z,24.65
2023-05-19T13:23:10.590Z,24.77
2023-05-19T13:25:38.898Z,24.69
2023-05-19T13:28:07.086Z,24.82
2023-05-19T13:30:39.850Z,24.94
2023-05-19T13:33:09.296Z,24.88
2023-05-19T13:35:37.973Z,24.97
2023-05-19T13:38:10.571Z,24.94
2023-05-19T13:40:40.020Z,24.96
2023-05-19T13:43:08.907Z,24.74
2023-05-19T13:45:37.942Z,24.81
2023-05-19T13:48:07.705Z,24.71
2023-05-19T13:50:35.426Z,24.82
2023-05-19T13:53:03.849Z,24.73
2023-05-19T13:55:33.523Z,24.64
2023-05-19T13:58:01.264Z,24.63
2023-05-19T14:00:28.796Z,24.70
2023-05-19T14:02:56.348Z,24.77
2023-05-19T14:05:23.837Z,24.62
2023-05-19T14:07:51.779Z,24.72
2023-05-19T14:10:19.143Z,24.69
2023-05-19T14:13:12.358Z,24.62
2023-05-19T14:15:38.220Z,24.57
2023-05-19T14:18:07.178Z,24.57
2023-05-19T14:20:35.865Z,24.57
2023-05-19T14:23:03.554Z,24.49
2023-05-19T14:25:31.084Z,24.51
2023-05-19T14:27:58.603Z,24.50
2023-05-19T14:30:25.997Z,24.55
2023-05-19T14:32:53.309Z,24.46
2023-05-19T14:35:21.277Z,24.46
2023-05-19T14:37:48.606Z,24.46
2023-05-19T14:40:16.023Z,24.45
2023-05-19T14:42:43.316Z,24.47
2023-05-19T14:45:11.275Z,24.58
2023-05-19T14:47:40.057Z,24.45
2023-05-19T14:50:08.421Z,24.55
2023-05-19T14:52:35.784Z,24.46
2023-05-19T14:55:06.108Z,24.48
2023-05-19T14:57:33.573Z,24.35
2023-05-19T15:00:00.908Z,24.42
2023-05-19T15:02:30.862Z,24.42
2023-05-19T15:04:58.447Z,24.43
2023-05-19T15:07:25.761Z,24.45
2023-05-19T15:09:53.499Z,24.36
2023-05-19T15:12:21.131Z,24.37
2023-05-19T15:14:49.234Z,24.37
2023-05-19T15:17:17.929Z,24.50
2023-05-19T15:19:45.391Z,24.44
2023-05-19T15:22:12.836Z,24.47
2023-05-19T15:24:41.367Z,24.56
2023-05-19T15:27:09.283Z,24.45
2023-05-19T15:29:39.598Z,24.53
2023-05-19T15:32:07.878Z,24.48
2023-05-19T15:34:35.198Z,24.49
2023-05-19T15:37:02.530Z,24.44
2023-05-19T15:39:31.263Z,24.56
2023-05-19T15:42:01.501Z,24.45
2023-05-19T15:44:29.241Z,24.44
2023-05-19T15:46:56.545Z,24.48
2023-05-19T15:49:25.341Z,24.46
2023-05-19T15:51:52.600Z,24.38
2023-05-19T15:54:20.628Z,24.28
2023-05-19T15:56:47.997Z,24.32
2023-05-19T15:59:15.285Z,24.22
2023-05-19T16:01:43.806Z,24.34
2023-05-19T16:04:11.937Z,24.25
2023-05-19T16:06:39.820Z,24.16
2023-05-19T16:09:07.186Z,24.15
2023-05-19T16:11:34.584Z,24.02
2023-05-19T16:14:02.180Z,24.05
2023-05-19T16:16:31.570Z,24.01
2023-05-19T16:18:58.918Z,23.92
2023-05-19T16:21:26.614Z,23.90
2023-05-19T16:23:54.197Z,23.85
2023-05-19T16:26:22.345Z,23.81
2023-05-19T16:28:49.637Z,23.83
2023-05-19T16:31:16.973Z,23.79
2023-05-19T16:33:44.297Z,23.83
2023-05-19T16:36:12.734Z,23.74
2023-05-19T16:38:40.376Z,23.72
2023-05-19T16:41:12.057Z,23.68
2023-05-19T16:43:39.694Z,23.60
2023-05-19T16:46:07.564Z,23.61
2023-05-19T16:48:34.928Z,23.44
2023-05-19T16:51:03.180Z,23.40
2023-05-19T16:53:31.622Z,23.47
2023-05-19T16:56:01.605Z,23.35
2023-05-19T16:58:31.034Z,23.30
2023-05-19T17:00:58.852Z,23.25
2023-05-19T17:03:26.356Z,23.22
2023-05-19T17:05:54.680Z,23.24
2023-05-19T17:08:21.996Z,23.25
2023-05-19T17:10:49.901Z,23.29
2023-05-19T17:13:17.285Z,23.11
2023-05-19T17:15:44.713Z,23.21
2023-05-19T17:18:13.262Z,23.13
2023-05-19T17:20:42.857Z,23.07
2023-05-19T17:23:10.776Z,23.02
2023-05-19T17:25:38.101Z,23.00
2023-05-19T17:28:07.939Z,23.00
2023-05-19T17:30:36.870Z,23.01
2023-05-19T17:33:04.628Z,23.03
2023-05-19T17:35:33.597Z,22.98
2023-05-19T17:38:01.290Z,22.93
2023-05-19T17:40:28.915Z,22.87
2023-05-19T17:42:56.419Z,22.85
2023-05-19T17:45:23.935Z,22.81
2023-05-19T17:47:51.666Z,22.75
2023-05-19T17:50:19.097Z,22.72
2023-05-19T17:52:48.300Z,22.70
2023-05-19T17:55:16.433Z,22.66
2023-05-19T17:57:46.394Z,22.70
2023-05-19T18:00:14.468Z,22.67
2023-05-19T18:02:44.092Z,22.61
2023-05-19T18:05:12.234Z,22.67
2023-05-19T18:07:42.468Z,22.65
2023-05-19T18:10:10.801Z,22.60
2023-05-19T18:12:38.521Z,22.57
2023-05-19T18:15:07.906Z,22.44
2023-05-19T18:17:35.300Z,22.54
2023-05-19T18:20:03.786Z,22.56
2023-05-19T18:22:32.312Z,22.56
2023-05-19T18:24:59.820Z,22.52
2023-05-19T18:27:28.164Z,22.39
2023-05-19T18:29:56.261Z,22.43
2023-05-19T18:32:23.771Z,22.36
2023-05-19T18:34:51.558Z,22.46
2023-05-19T18:37:18.900Z,22.42
2023-05-19T18:39:47.165Z,22.41
2023-05-19T18:42:14.955Z,22.32
2023-05-19T18:44:47.108Z,22.24
2023-05-19T18:47:14.847Z,22.23
2023-05-19T18:49:42.522Z,22.34
2023-05-19T18:52:10.491Z,22.23
2023-05-19T18:54:42.538Z,22.23
2023-05-19T18:57:10.924Z,22.25
2023-05-19T18:59:41.113Z,22.24
2023-05-19T19:02:08.521Z,22.26
2023-05-19T19:04:36.065Z,22.25
2023-05-19T19:07:14.665Z,22.01
2023-05-19T19:09:44.306Z,22.10
2023-05-19T19:12:13.547Z,22.18
2023-05-19T19:14:42.039Z,22.16
2023-05-19T19:17:12.279Z,22.12
2023-05-19T19:19:43.384Z,22.13
2023-05-19T19:22:12.292Z,21.98
2023-05-19T19:24:39.853Z,22.06
2023-05-19T19:27:10.754Z,22.05
2023-05-19T19:29:38.873Z,22.03
2023-05-19T19:32:06.749Z,22.08
2023-05-19T19:34:34.499Z,21.99
2023-05-19T19:37:02.736Z,21.99
2023-05-19T19:39:30.433Z,22.01
2023-05-19T19:41:58.201Z,22.00
2023-05-19T19:44:25.643Z,21.89
2023-05-19T19:46:53.095Z,22.04
2023-05-19T19:49:21.484Z,22.05
2023-05-19T19:51:48.958Z,22.05
2023-05-19T19:54:16.291Z,22.13
2023-05-19T19:56:43.638Z,22.11
2023-05-19T19:59:13.237Z,22.03
2023-05-19T20:01:40.982Z,22.08
2023-05-19T20:04:08.398Z,22.00
2023-05-19T20:06:37.202Z,21.99
2023-05-19T20:09:05.657Z,22.00
2023-05-19T20:11:33.144Z,21.89
2023-05-19T20:14:00.632Z,21.93
2023-05-19T20:16:28.362Z,21.99
2023-05-19T20:18:55.869Z,22.02
2023-05-19T20:21:23.913Z,21.90
2023-05-19T20:23:51.575Z,21.98
2023-05-19T20:26:19.008Z,21.95
2023-05-19T20:28:46.624Z,21.94
2023-05-19T20:31:15.265Z,21.93
2023-05-19T20:33:42.510Z,21.86
2023-05-19T20:36:11.112Z,21.85
2023-05-19T20:38:38.513Z,21.68
2023-05-19T20:41:05.878Z,21.69
2023-05-19T20:43:33.894Z,21.60
2023-05-19T20:46:04.101Z,21.71
2023-05-19T20:48:36.511Z,21.64
2023-05-19T20:51:04.210Z,21.65
2023-05-19T20:53:33.675Z,21.56
2023-05-19T20:56:01.829Z,21.64
2023-05-19T20:58:30.460Z,21.52
2023-05-19T21:00:58.342Z,21.55
2023-05-19T21:03:27.228Z,21.54
2023-05-19T21:05:56.271Z,21.63
2023-05-19T21:08:24.440Z,21.64
2023-05-19T21:10:51.887Z,21.69
2023-05-19T21:13:19.518Z,21.52
2023-05-19T21:15:47.098Z,21.55
2023-05-19T21:18:15.284Z,21.48
2023-05-19T21:20:42.736Z,21.53
2023-05-19T21:23:10.169Z,21.54
2023-05-19T21:25:38.525Z,21.47
2023-05-19T21:28:06.259Z,21.43
2023-05-19T21:30:34.080Z,21.35
2023-05-19T21:33:04.353Z,21.38
2023-05-19T21:35:31.707Z,21.44
2023-05-19T21:38:03.917Z,21.37
2023-05-19T21:40:36.867Z,21.30
2023-05-19T21:43:04.658Z,21.16
2023-05-19T21:45:32.065Z,21.08
2023-05-19T21:47:59.627Z,21.03
2023-05-19T21:50:27.332Z,21.00
2023-05-19T21:52:54.584Z,21.03
2023-05-19T21:55:23.228Z,21.07
2023-05-19T21:57:50.915Z,20.94
2023-05-19T22:00:18.579Z,20.90
2023-05-19T22:02:46.300Z,20.92
2023-05-19T22:05:13.645Z,20.79
2023-05-19T22:07:41.215Z,20.80
2023-05-19T22:10:09.173Z,20.74
2023-05-19T22:12:36.730Z,20.83
2023-05-19T22:15:04.376Z,20.73
2023-05-19T22:17:32.434Z,20.58
2023-05-19T22:19:59.990Z,20.55
2023-05-19T22:22:28.206Z,20.45
2023-05-19T22:24:55.553Z,20.52
2023-05-19T22:27:22.987Z,20.33
2023-05-19T22:29:51.512Z,20.41
2023-05-19T22:32:20.257Z,20.37
2023-05-19T22:34:47.542Z,20.27
2023-05-19T22:37:14.834Z,20.24
2023-05-19T22:39:42.215Z,20.12
2023-05-19T22:42:09.656Z,20.18
2023-05-19T22:44:37.032Z,20.17
2023-05-19T22:47:16.715Z,20.27
2023-05-19T22:49:44.135Z,20.18
2023-05-19T22:52:12.057Z,20.19
2023-05-19T22:54:40.510Z,20.09
2023-05-19T22:57:07.893Z,20.10
2023-05-19T22:59:38.848Z,20.07
2023-05-19T23:02:06.257Z,19.90
2023-05-19T23:04:36.956Z,20.01
2023-05-19T23:07:04.667Z,19.85
2023-05-19T23:09:31.901Z,19.81
2023-05-19T23:11:59.224Z,19.65
2023-05-19T23:14:26.895Z,19.60
2023-05-19T23:16:54.469Z,19.43
2023-05-19T23:19:23.119Z,19.42
2023-05-19T23:21:50.699Z,19.25
2023-05-19T23:24:18.225Z,19.20
2023-05-19T23:26:46.002Z,19.17
2023-05-19T23:29:14.988Z,19.01
2023-05-19T23:31:42.600Z,18.94
2023-05-19T23:34:10.807Z,18.90
2023-05-19T23:36:38.222Z,18.76
2023-05-19T23:39:05.613Z,18.69
2023-05-19T23:41:33.205Z,18.66
2023-05-19T23:44:00.457Z,18.66
2023-05-19T23:46:27.949Z,18.48
2023-05-19T23:48:55.172Z,18.22
2023-05-19T23:51:22.451Z,18.32
2023-05-19T23:53:49.791Z,18.10
2023-05-19T23:56:20.035Z,18.16
2023-05-19T23:58:47.585Z,18.12
